TimeEDT,TemperatureF,Dew PointF,Humidity,Sea Level PressureIn,VisibilityMPH,Wind Direction,Wind SpeedMPH,Gust SpeedMPH,PrecipitationIn,Events,Conditions,WindDirDegrees,DateUTC
12:51 AM,66.9,46.9,49,29.88,10.0,South,8.1,-,N/A,,Partly Cloudy,190,2013-04-10 04:51:00
1:51 AM,69.1,51.1,53,29.85,10.0,SSW,8.1,-,N/A,,Scattered Clouds,200,2013-04-10 05:51:00
2:51 AM,68.0,52.0,56,29.82,10.0,SSW,12.7,-,N/A,,Mostly Cloudy,210,2013-04-10 06:51:00
3:51 AM,68.0,52.0,56,29.85,10.0,NNW,13.8,21.9,N/A,,Mostly Cloudy,340,2013-04-10 07:51:00
4:51 AM,62.1,44.1,52,29.87,10.0,NNE,6.9,-,N/A,,Mostly Cloudy,30,2013-04-10 08:51:00
5:51 AM,57.0,46.0,67,29.89,10.0,NNE,8.1,-,N/A,,Mostly Cloudy,20,2013-04-10 09:51:00
6:51 AM,55.9,46.0,69,29.91,10.0,North,4.6,-,N/A,,Mostly Cloudy,10,2013-04-10 10:51:00
7:51 AM,60.1,46.9,62,29.94,10.0,North,5.8,-,N/A,,Mostly Cloudy,360,2013-04-10 11:51:00
8:51 AM,61.0,46.9,60,29.94,10.0,East,3.5,-,N/A,,Mostly Cloudy,90,2013-04-10 12:51:00
9:51 AM,64.9,46.9,52,29.93,10.0,ENE,4.6,-,N/A,,Mostly Cloudy,70,2013-04-10 13:51:00
10:51 AM,68.0,46.9,47,29.92,10.0,NNE,3.5,-,N/A,,Mostly Cloudy,20,2013-04-10 14:51:00
11:51 AM,71.1,48.9,45,29.92,10.0,East,5.8,-,N/A,,Mostly Cloudy,80,2013-04-10 15:51:00
12:51 PM,71.1,48.9,45,29.91,10.0,East,6.9,-,N/A,,Scattered Clouds,80,2013-04-10 16:51:00
1:51 PM,73.0,48.9,42,29.91,10.0,East,10.4,-,N/A,,Scattered Clouds,100,2013-04-10 17:51:00
2:51 PM,69.1,48.0,47,29.89,10.0,SE,11.5,-,N/A,,Mostly Cloudy,130,2013-04-10 18:51:00
3:51 PM,64.9,48.0,54,29.88,10.0,SE,12.7,18.4,N/A,,Mostly Cloudy,140,2013-04-10 19:51:00
4:51 PM,62.1,46.9,58,29.87,10.0,SE,12.7,16.1,N/A,,Mostly Cloudy,130,2013-04-10 20:51:00
5:51 PM,55.9,46.0,69,29.87,10.0,SE,8.1,18.4,N/A,,Mostly Cloudy,140,2013-04-10 21:51:00
6:51 PM,55.9,46.9,72,29.85,10.0,ENE,5.8,-,N/A,,Overcast,60,2013-04-10 22:51:00
6:59 PM,55.4,46.4,72,29.97,10.0,NNW,31.1,39.1,0.00,Rain-Thunderstorm,Light Thunderstorms and Rain,330,2013-04-10 22:59:00
7:51 PM,59.0,54.0,83,29.83,9.0,ESE,12.7,20.7,0.17,Rain-Thunderstorm,Light Thunderstorms and Rain,120,2013-04-10 23:51:00
8:51 PM,57.9,54.0,87,29.83,10.0,Calm,Calm,-,0.05,Thunderstorm,Thunderstorm,0,2013-04-11 00:51:00
9:05 PM,57.2,53.6,88,29.87,10.0,SSW,6.9,-,N/A,,Overcast,210,2013-04-11 01:05:00
9:48 PM,55.4,51.8,88,29.83,10.0,SE,4.6,-,N/A,Thunderstorm,Thunderstorm,130,2013-04-11 01:48:00
9:51 PM,55.9,52.0,87,29.84,10.0,East,4.6,-,N/A,Thunderstorm,Thunderstorm,100,2013-04-11 01:51:00
10:51 PM,57.2,57.2,100,29.89,3.0,Calm,Calm,-,N/A,Rain-Thunderstorm,Light Thunderstorms and Rain,0,2013-04-11 02:51:00
11:15 PM,57.2,55.4,94,29.89,4.0,South,3.5,-,0.04,Rain,Light Rain,190,2013-04-11 03:15:00
11:51 PM,57.0,55.9,96,29.85,4.0,SSE,5.8,-,0.06,Rain,Light Rain,150,2013-04-11 03:51:00